< < Back
Terminal Aerodrome Forecast


Current Version              Previous Versions:   1  2  3  4  5  6  7  8  9  

Terminal Aerodrome Forecast

014
FTUS42 KTAE 292323
TAFABY
TAF
KABY 292323Z 3000/3024 07009KT P6SM SCT035=

Latest METAR

957
SAUS70 KWBC 300456
MTRABY
METAR KABY 300453Z AUTO 06007KT 10SM CLR 26/22 A3005 RMK AO2 SLP172
T02610217 403560239


USA.gov is the U.S. government's official web portal to all federal, state and local government web resources and services.